Time;durP1;ratioP1;P1;durP2;ratioP2;P2;SDS_P1;SDS_P2;PMS_P1;PMS_P2;Temp;Humidity;BMP_temperature;BMP_pressure;BME280_temperature;BME280_humidity;BME280_pressure;Samples;Min_cycle;Max_cycle;Signal;HPM_P1;HPM_P2
2024/04/18 00:00:32;;;;;;;1.80;1.70;;;;;;;8.18;100.00;99907.34;5490204;26;20370;-81
2024/04/18 00:02:58;;;;;;;1.90;1.80;;;;;;;8.23;100.00;99915.53;5490149;26;20430;-81
2024/04/18 00:05:23;;;;;;;3.17;1.90;;;;;;;8.26;100.00;99903.44;5490418;26;20404;-81
2024/04/18 00:07:48;;;;;;;2.33;1.80;;;;;;;8.20;100.00;99912.50;5490104;26;20311;-79
2024/04/18 00:10:14;;;;;;;2.00;1.80;;;;;;;8.15;100.00;99909.69;5490158;26;20665;-81
2024/04/18 00:12:40;;;;;;;2.30;2.10;;;;;;;8.12;100.00;99908.31;5490216;26;20322;-80
2024/04/18 00:15:07;;;;;;;2.27;2.07;;;;;;;8.10;100.00;99905.03;5515622;26;20347;-80
2024/04/18 00:17:33;;;;;;;2.65;1.63;;;;;;;8.10;100.00;99905.03;5522662;26;20307;-80
2024/04/18 00:19:59;;;;;;;2.45;2.10;;;;;;;8.11;100.00;99909.38;5490220;26;20308;-81
2024/04/18 00:22:24;;;;;;;4.47;2.20;;;;;;;8.17;100.00;99911.09;5522778;26;20307;-80
2024/04/18 00:24:49;;;;;;;3.47;2.23;;;;;;;8.21;100.00;99904.16;5486321;26;20320;-81
2024/04/18 00:27:14;;;;;;;2.80;1.70;;;;;;;8.24;100.00;99905.53;5522922;26;20846;-80
2024/04/18 00:29:40;;;;;;;2.83;1.83;;;;;;;8.20;100.00;99909.81;5490334;26;20316;-81
2024/04/18 00:32:05;;;;;;;2.10;1.90;;;;;;;8.18;100.00;99909.22;5451145;26;20318;-80
2024/04/18 00:34:30;;;;;;;2.10;2.00;;;;;;;8.18;100.00;99901.13;5489496;26;20323;-81
2024/04/18 00:36:55;;;;;;;3.77;2.10;;;;;;;8.17;100.00;99908.41;5489300;26;20605;-80
2024/04/18 00:39:21;;;;;;;2.57;2.37;;;;;;;8.16;100.00;99904.09;5489822;26;20311;-81
2024/04/18 00:41:46;;;;;;;3.00;2.23;;;;;;;8.13;100.00;99907.25;5489776;26;20427;-78
2024/04/18 00:44:11;;;;;;;3.80;2.07;;;;;;;8.14;100.00;99911.59;5489009;26;20326;-81
2024/04/18 00:46:37;;;;;;;2.57;1.97;;;;;;;8.14;100.00;99908.06;5489689;26;20311;-80
2024/04/18 00:49:02;;;;;;;2.70;2.30;;;;;;;8.16;100.00;99909.47;5470303;26;20845;-81
2024/04/18 00:51:28;;;;;;;3.07;2.53;;;;;;;8.16;100.00;99920.28;5489469;26;20326;-80
2024/04/18 00:53:54;;;;;;;2.60;2.20;;;;;;;8.11;100.00;99908.53;5489634;26;20439;-81
2024/04/18 00:56:20;;;;;;;2.35;2.22;;;;;;;8.11;100.00;99908.53;5489282;26;20338;-80
2024/04/18 00:58:47;;;;;;;2.53;2.28;;;;;;;8.13;100.00;99909.97;5489453;26;20860;-81
2024/04/18 01:01:13;;;;;;;3.88;2.58;;;;;;;8.06;100.00;99914.69;5489363;26;20345;-81
2024/04/18 01:03:38;;;;;;;3.38;2.40;;;;;;;8.12;100.00;99916.41;5489644;26;20649;-80
2024/04/18 01:06:06;;;;;;;3.17;2.50;;;;;;;8.14;100.00;99911.59;5514005;26;20352;-80
2024/04/18 01:08:31;;;;;;;2.78;2.58;;;;;;;8.15;100.00;99909.69;5521919;26;20316;-81
2024/04/18 01:10:57;;;;;;;2.40;2.30;;;;;;;8.15;100.00;99909.69;5522012;26;20508;-80
2024/04/18 01:13:22;;;;;;;3.03;2.80;;;;;;;8.15;100.00;99904.31;5522085;26;20315;-81
2024/04/18 01:15:47;;;;;;;2.90;2.70;;;;;;;8.10;100.00;99902.31;5487423;26;20331;-81
2024/04/18 01:18:12;;;;;;;3.40;3.00;;;;;;;8.04;100.00;99906.00;5519976;26;20303;-81
2024/04/18 01:20:38;;;;;;;3.00;2.47;;;;;;;8.06;100.00;99911.16;5521734;26;20900;-81
2024/04/18 01:23:03;;;;;;;3.07;2.87;;;;;;;8.08;100.00;99903.63;5480718;26;20343;-81
2024/04/18 01:25:28;;;;;;;3.27;2.90;;;;;;;8.09;100.00;99908.81;5489013;26;20356;-81
2024/04/18 01:27:53;;;;;;;3.30;3.10;;;;;;;8.06;100.00;99903.88;5489041;26;20315;-82
2024/04/18 01:30:19;;;;;;;7.13;5.37;;;;;;;8.05;100.00;99906.81;5436091;26;20691;-82
2024/04/18 01:32:44;;;;;;;7.57;5.77;;;;;;;8.05;100.00;99910.34;5521748;26;20347;-82
2024/04/18 01:35:09;;;;;;;3.50;3.30;;;;;;;8.04;100.00;99907.88;5489506;26;20401;-82
2024/04/18 01:37:37;;;;;;;3.33;3.13;;;;;;;8.05;100.00;99910.34;5517004;26;20316;-82
2024/04/18 01:40:03;;;;;;;3.47;3.17;;;;;;;8.01;100.00;99906.47;5438675;26;20322;-82
2024/04/18 01:42:28;;;;;;;3.83;3.38;;;;;;;8.00;100.00;99904.03;5488899;26;20413;-82
2024/04/18 01:44:53;;;;;;;4.27;3.43;;;;;;;8.03;100.00;99917.88;5489044;26;20414;-82
2024/04/18 01:47:19;;;;;;;3.60;3.07;;;;;;;8.03;100.00;99909.78;5488745;26;20346;-82
2024/04/18 01:49:44;;;;;;;3.57;3.27;;;;;;;8.01;100.00;99909.19;5488754;26;20669;-82
2024/04/18 01:52:09;;;;;;;4.50;3.30;;;;;;;7.97;100.00;99909.91;5488652;26;20381;-82
2024/04/18 01:54:34;;;;;;;3.80;3.50;;;;;;;7.95;100.00;99910.16;5488844;26;20364;-82
2024/04/18 01:57:00;;;;;;;4.30;3.07;;;;;;;7.95;100.00;99912.84;5486303;26;20426;-82
2024/04/18 01:59:26;;;;;;;5.05;3.10;;;;;;;7.99;100.00;99922.09;5488640;26;20734;-82
2024/04/18 02:01:53;;;;;;;4.30;3.90;;;;;;;8.00;100.00;99912.13;5488550;26;20354;-82
2024/04/18 02:04:18;;;;;;;3.00;2.80;;;;;;;8.00;100.00;99912.13;5488474;26;20816;-82
2024/04/18 02:06:44;;;;;;;4.33;3.40;;;;;;;7.98;100.00;99915.06;5488547;26;20342;-82
2024/04/18 02:09:09;;;;;;;4.27;3.40;;;;;;;7.97;100.00;99921.50;5488249;26;20350;-82
2024/04/18 02:11:36;;;;;;;3.85;3.58;;;;;;;7.93;100.00;99922.25;5488552;26;20306;-82
2024/04/18 02:14:01;;;;;;;3.83;3.38;;;;;;;7.92;100.00;99923.31;5475646;26;20682;-82
2024/04/18 02:16:26;;;;;;;4.60;3.03;;;;;;;7.89;100.00;99916.50;5488351;26;20358;-83
2024/04/18 02:18:52;;;;;;;3.73;3.43;;;;;;;7.90;100.00;99923.56;5487175;26;20674;-82
2024/04/18 02:21:17;;;;;;;3.57;3.27;;;;;;;7.96;100.00;99924.47;5488066;26;20315;-82
2024/04/18 02:23:42;;;;;;;3.35;3.15;;;;;;;7.96;100.00;99927.97;5455729;26;20809;-82
2024/04/18 02:26:07;;;;;;;5.93;3.37;;;;;;;7.95;100.00;99922.81;5488275;26;20342;-82
2024/04/18 02:28:33;;;;;;;3.33;3.05;;;;;;;7.95;100.00;99920.13;5488242;26;20362;-83
2024/04/18 02:31:03;;;;;;;3.37;3.17;;;;;;;7.83;100.00;99923.69;5464810;26;20777;-82
2024/04/18 02:33:29;;;;;;;4.00;3.60;;;;;;;7.86;100.00;99921.56;5487332;26;20902;-82
2024/04/18 02:35:54;;;;;;;3.47;3.17;;;;;;;7.88;100.00;99922.97;5487980;26;20821;-82
2024/04/18 02:41:41;;;;;;;4.15;3.83;;;;;;;7.87;100.00;99929.41;5139273;26;20333;-82
2024/04/18 02:44:06;;;;;;;3.90;3.70;;;;;;;7.88;100.00;99922.13;5487909;26;20310;-82
2024/04/18 02:46:31;;;;;;;4.30;3.90;;;;;;;7.91;100.00;99916.25;5481181;26;20418;-82
2024/04/18 02:48:57;;;;;;;4.00;3.70;;;;;;;7.88;100.00;99922.97;5513798;26;20355;-81
2024/04/18 02:51:22;;;;;;;8.30;6.97;;;;;;;7.89;100.00;99919.22;5513805;26;20397;-81
2024/04/18 02:53:47;;;;;;;5.75;4.80;;;;;;;7.90;100.00;99923.56;5509702;26;20311;-81
2024/04/18 02:56:12;;;;;;;4.77;4.30;;;;;;;7.88;100.00;99931.06;5506710;26;20306;-81
2024/04/18 02:58:38;;;;;;;5.57;4.47;;;;;;;7.90;100.00;99930.81;5493784;26;20319;-81
2024/04/18 03:01:03;;;;;;;4.23;3.83;;;;;;;7.88;100.00;99927.53;5487886;26;20322;-80
2024/04/18 03:03:28;;;;;;;3.88;3.63;;;;;;;7.86;100.00;99926.97;5479877;26;20358;-81
2024/04/18 03:06:03;;;;;;;4.20;3.90;;;;;;;7.82;100.00;99930.13;5487607;26;20298;-81
2024/04/18 03:08:28;;;;;;;3.83;3.53;;;;;;;7.77;100.00;99930.03;5513166;26;20307;-81
2024/04/18 03:10:54;;;;;;;3.50;3.20;;;;;;;7.76;100.00;99933.81;5513037;26;20841;-80
2024/04/18 03:13:19;;;;;;;3.13;2.97;;;;;;;7.77;100.00;99935.41;5478984;26;20353;-80
2024/04/18 03:15:45;;;;;;;3.23;2.93;;;;;;;7.76;100.00;99925.72;5506536;26;20318;-80
2024/04/18 03:18:10;;;;;;;3.20;3.00;;;;;;;7.75;100.00;99931.31;5510933;26;20318;-80
2024/04/18 03:20:36;;;;;;;3.22;2.92;;;;;;;7.77;100.00;99937.31;5490323;26;20419;-81
2024/04/18 03:23:02;;;;;;;3.40;3.20;;;;;;;7.73;100.00;99944.25;5480383;26;20350;-81
2024/04/18 03:25:27;;;;;;;3.55;3.35;;;;;;;7.72;100.00;99938.03;5487432;26;20318;-81
2024/04/18 03:27:53;;;;;;;2.90;2.80;;;;;;;7.73;100.00;99938.84;5487381;26;20418;-80
2024/04/18 03:30:18;;;;;;;3.00;2.80;;;;;;;7.74;100.00;99935.91;5454748;26;20322;-79
2024/04/18 03:32:43;;;;;;;2.77;2.67;;;;;;;7.76;100.00;99946.47;5487151;26;20354;-80
2024/04/18 03:35:08;;;;;;;2.73;2.53;;;;;;;7.72;100.00;99939.91;5487137;26;20326;-80
2024/04/18 03:37:34;;;;;;;4.10;3.80;;;;;;;7.69;100.00;99948.47;5477657;26;20317;-80
2024/04/18 03:39:59;;;;;;;3.10;2.90;;;;;;;7.68;100.00;99942.25;5512572;26;20720;-80
2024/04/18 03:42:24;;;;;;;3.07;2.93;;;;;;;7.68;100.00;99944.13;5512787;26;20316;-79
2024/04/18 03:44:49;;;;;;;4.50;2.83;;;;;;;7.72;100.00;99951.50;5493052;26;20317;-79
2024/04/18 03:47:15;;;;;;;3.00;2.80;;;;;;;7.75;100.00;99953.72;5494551;26;20348;-79
2024/04/18 03:49:40;;;;;;;3.63;3.43;;;;;;;7.73;100.00;99953.16;5509187;26;20838;-79
2024/04/18 03:52:05;;;;;;;3.20;3.00;;;;;;;7.76;100.00;99968.03;5512354;26;20352;-79
2024/04/18 03:54:30;;;;;;;3.57;3.30;;;;;;;7.76;100.00;99959.94;5458815;26;20415;-79
2024/04/18 03:56:56;;;;;;;3.60;3.40;;;;;;;7.77;100.00;99964.28;5486574;26;20394;-79
2024/04/18 03:59:21;;;;;;;3.63;3.33;;;;;;;7.76;100.00;99965.34;5508302;26;20801;-78
2024/04/18 04:01:46;;;;;;;3.17;2.87;;;;;;;7.75;100.00;99967.22;5512283;26;20308;-79
2024/04/18 04:04:11;;;;;;;3.33;3.13;;;;;;;7.75;100.00;99969.09;5512332;26;20409;-80
2024/04/18 04:06:37;;;;;;;4.13;2.93;;;;;;;7.71;100.00;99968.75;5507770;26;20406;-80
2024/04/18 04:09:02;;;;;;;3.43;3.23;;;;;;;7.67;100.00;99967.56;5505468;26;20345;-80
2024/04/18 04:11:28;;;;;;;3.80;3.50;;;;;;;7.71;100.00;99973.31;5510249;26;20312;-79
2024/04/18 04:13:54;;;;;;;3.70;3.40;;;;;;;7.73;100.00;99979.31;5479689;26;20315;-80
2024/04/18 04:16:20;;;;;;;3.70;3.50;;;;;;;7.73;100.00;99979.31;5476935;26;20835;-79
2024/04/18 04:18:50;;;;;;;4.72;3.83;;;;;;;7.74;100.00;99989.84;5505131;26;20412;-80
2024/04/18 04:21:18;;;;;;;3.97;3.75;;;;;;;7.65;100.00;99985.06;5511547;26;20346;-80
2024/04/18 04:23:44;;;;;;;4.25;3.95;;;;;;;7.65;100.00;99990.44;5479710;26;20794;-80
2024/04/18 04:26:09;;;;;;;3.90;3.70;;;;;;;7.70;100.00;99995.97;5509156;26;20348;-79
2024/04/18 04:28:34;;;;;;;4.10;3.80;;;;;;;7.72;100.00;99993.84;5501081;26;20319;-79
2024/04/18 04:30:59;;;;;;;4.13;3.83;;;;;;;7.68;100.00;99998.06;5485616;26;20393;-80
2024/04/18 04:33:31;;;;;;;3.90;3.77;;;;;;;7.63;100.00;99997.97;5485485;26;20311;-80
2024/04/18 04:35:56;;;;;;;4.45;4.05;;;;;;;7.68;100.00;100006.97;5470005;26;20842;-80
2024/04/18 04:38:22;;;;;;;4.23;3.97;;;;;;;7.68;100.00;100003.47;5442292;26;20314;-80
2024/04/18 04:40:48;;;;;;;4.03;3.63;;;;;;;7.74;100.00;100010.59;5489372;26;20362;-80
2024/04/18 04:43:13;;;;;;;5.60;4.10;;;;;;;7.77;100.00;100012.84;5488716;26;20326;-79
2024/04/18 04:45:38;;;;;;;4.67;4.20;;;;;;;7.78;100.00;100020.69;5483554;26;20804;-80
2024/04/18 04:48:04;;;;;;;4.77;4.47;;;;;;;7.80;100.00;100029.34;5488513;26;20307;-80
2024/04/18 04:50:29;;;;;;;3.50;3.30;;;;;;;7.70;100.00;100026.47;5488581;26;20880;-76
2024/04/18 04:52:55;;;;;;;3.47;3.27;;;;;;;7.74;100.00;100029.47;5510324;26;20304;-79
2024/04/18 04:55:20;;;;;;;4.00;3.70;;;;;;;7.77;100.00;100032.53;5478313;26;20965;-79
2024/04/18 04:57:45;;;;;;;3.85;3.65;;;;;;;7.78;100.00;100036.88;5457582;26;20427;-79
2024/04/18 05:00:11;;;;;;;3.90;3.60;;;;;;;7.77;100.00;100037.91;5457228;26;20343;-77
2024/04/18 05:02:37;;;;;;;4.35;3.97;;;;;;;7.79;100.00;100040.38;5494247;26;20316;-81
2024/04/18 05:05:02;;;;;;;3.83;3.50;;;;;;;7.79;100.00;100049.31;5514782;26;20348;-79
2024/04/18 05:07:27;;;;;;;3.50;3.30;;;;;;;7.75;100.00;100050.00;5497649;26;20322;-80
2024/04/18 05:09:53;;;;;;;4.20;3.77;;;;;;;7.79;100.00;100057.41;5507305;26;20330;-80
2024/04/18 05:12:18;;;;;;;3.87;3.67;;;;;;;7.81;100.00;100049.06;5480710;26;20320;-74
2024/04/18 05:14:43;;;;;;;3.30;3.10;;;;;;;7.79;100.00;100059.28;5514785;26;20324;-74
2024/04/18 05:17:09;;;;;;;4.03;3.50;;;;;;;7.67;100.00;100059.25;5493375;26;20330;-80
2024/04/18 05:19:34;;;;;;;3.67;3.37;;;;;;;7.67;100.00;100061.97;5492425;26;20334;-80
2024/04/18 05:21:59;;;;;;;4.13;3.00;;;;;;;7.69;100.00;100067.13;5488842;26;20314;-78
2024/04/18 05:24:25;;;;;;;2.67;2.50;;;;;;;7.64;100.00;100070.53;5488571;26;20335;-79
2024/04/18 05:26:50;;;;;;;2.57;2.47;;;;;;;7.70;100.00;100075.00;5486846;26;20358;-77
2024/04/18 05:31:59;;;;;;;2.67;2.58;;;;;;;7.55;100.00;100077.34;5491665;26;20348;-77
2024/04/18 05:34:25;;;;;;;2.88;2.67;;;;;;;7.54;100.00;100075.69;5467200;26;20319;-78
2024/04/18 05:36:50;;;;;;;2.90;2.70;;;;;;;7.59;100.00;100083.91;5478213;26;20779;-78
2024/04/18 05:39:16;;;;;;;2.60;2.50;;;;;;;7.63;100.00;100085.09;5488183;26;20685;-78
2024/04/18 05:41:41;;;;;;;2.97;2.78;;;;;;;7.62;100.00;100096.91;5488199;26;20318;-78
2024/04/18 05:44:06;;;;;;;4.23;2.77;;;;;;;7.67;100.00;100098.94;5514594;26;20316;-77
2024/04/18 05:46:31;;;;;;;3.00;2.80;;;;;;;7.67;100.00;100104.31;5489938;26;20319;-78
2024/04/18 05:48:57;;;;;;;5.13;3.80;;;;;;;7.71;100.00;100105.47;5488947;26;20311;-78
2024/04/18 05:51:22;;;;;;;5.63;4.30;;;;;;;7.66;100.00;100103.50;5492851;26;20322;-77
2024/04/18 05:53:48;;;;;;;5.70;5.13;;;;;;;7.72;100.00;100113.34;5501125;26;20318;-78
2024/04/18 05:56:13;;;;;;;4.13;3.70;;;;;;;7.74;100.00;100118.50;5468873;26;20332;-78
2024/04/18 05:58:40;;;;;;;3.53;3.25;;;;;;;7.74;100.00;100127.41;5505523;26;20992;-77
2024/04/18 06:01:05;;;;;;;6.75;4.05;;;;;;;7.73;100.00;100130.34;5487902;26;20797;-78
2024/04/18 06:03:32;;;;;;;2.60;2.40;;;;;;;7.65;100.00;100136.09;5475812;26;20378;-78
2024/04/18 06:05:59;;;;;;;1.65;1.52;;;;;;;7.63;100.00;100143.59;5467611;26;20327;-77
2024/04/18 06:08:24;;;;;;;1.05;1.00;;;;;;;7.65;100.00;100149.56;5488477;26;20311;-77
2024/04/18 06:10:50;;;;;;;1.10;1.10;;;;;;;7.65;100.00;100150.38;5483027;26;20775;-78
2024/04/18 06:13:15;;;;;;;1.50;1.00;;;;;;;7.63;100.00;100152.50;5492273;26;20343;-78
2024/04/18 06:15:44;;;;;;;1.10;1.10;;;;;;;7.61;100.00;100160.00;5481638;26;20312;-78
2024/04/18 06:18:10;;;;;;;1.80;1.00;;;;;;;7.63;100.00;100167.88;5512634;26;20459;-78
2024/04/18 06:20:42;;;;;;;2.72;1.23;;;;;;;7.63;100.00;100163.28;5507088;26;20351;-77
2024/04/18 06:23:07;;;;;;;1.77;0.95;;;;;;;7.65;100.00;100171.13;5505894;26;20358;-78
2024/04/18 06:25:35;;;;;;;1.50;1.10;;;;;;;7.62;100.00;100175.13;5500069;26;20360;-77
2024/04/18 06:28:01;;;;;;;1.30;1.30;;;;;;;7.62;100.00;100180.53;5479496;26;20406;-78
2024/04/18 06:30:26;;;;;;;2.70;0.77;;;;;;;7.59;100.00;100183.69;5456182;26;20306;-78
2024/04/18 06:32:52;;;;;;;3.47;1.40;;;;;;;7.57;100.00;100187.69;5486799;26;20311;-78
2024/04/18 06:35:17;;;;;;;1.70;1.60;;;;;;;7.58;100.00;100192.81;5485945;26;20314;-78
2024/04/18 06:37:42;;;;;;;1.10;1.10;;;;;;;7.47;100.00;100199.03;5469585;26;20350;-78
2024/04/18 06:40:08;;;;;;;1.53;1.43;;;;;;;7.44;100.00;100201.38;5487602;26;20809;-77
2024/04/18 06:42:33;;;;;;;2.00;1.50;;;;;;;7.49;100.00;100206.88;5488000;26;20311;-78
2024/04/18 06:44:58;;;;;;;1.70;1.30;;;;;;;7.53;100.00;100221.53;5488058;26;20840;-78
2024/04/18 06:47:24;;;;;;;1.23;1.23;;;;;;;7.52;100.00;100218.03;5513715;26;20394;-78
2024/04/18 06:49:49;;;;;;;1.47;1.30;;;;;;;7.44;100.00;100226.47;5509377;26;20308;-78
2024/04/18 06:52:14;;;;;;;2.10;1.23;;;;;;;7.38;100.00;100223.81;5489174;26;20431;-78
2024/04/18 06:54:39;;;;;;;1.10;1.10;;;;;;;7.38;100.00;100229.22;5486909;26;20306;-78
2024/04/18 06:57:05;;;;;;;2.07;0.90;;;;;;;7.37;100.00;100239.19;5487751;26;20832;-78
2024/04/18 06:59:30;;;;;;;1.00;1.00;;;;;;;7.31;100.00;100235.53;5487890;26;20318;-78
2024/04/18 07:01:55;;;;;;;0.87;0.87;;;;;;;7.33;100.00;100243.41;5479807;26;20343;-78
2024/04/18 07:04:21;;;;;;;0.90;0.70;;;;;;;7.35;100.00;100237.75;5489311;26;20381;-77
2024/04/18 07:06:46;;;;;;;0.60;0.60;;;;;;;7.21;100.00;100239.84;5511336;26;20379;-78
2024/04/18 07:09:11;;;;;;;0.70;0.70;;;;;;;7.24;100.00;100247.47;5506647;26;20409;-78
2024/04/18 07:11:36;;;;;;;0.60;0.60;;;;;;;7.23;100.00;100252.03;5505513;26;20763;-77
2024/04/18 07:14:02;;;;;;;0.90;0.90;;;;;;;7.24;100.00;100245.56;5487627;26;20298;-78
2024/04/18 07:16:27;;;;;;;2.13;0.90;;;;;;;7.23;100.00;100249.34;5486811;26;20346;-78
2024/04/18 07:18:52;;;;;;;0.50;0.50;;;;;;;7.21;100.00;100247.94;5440965;26;20313;-77
2024/04/18 07:21:18;;;;;;;0.40;0.40;;;;;;;7.20;100.00;100251.66;5482132;26;20326;-78
2024/04/18 07:23:43;;;;;;;0.93;0.50;;;;;;;7.19;100.00;100256.22;5480936;26;20315;-78
2024/04/18 07:26:09;;;;;;;0.60;0.40;;;;;;;7.23;100.00;100259.28;5481352;26;20315;-78
2024/04/18 07:28:34;;;;;;;0.67;0.67;;;;;;;7.25;100.00;100259.88;5487095;26;20318;-78
2024/04/18 07:30:59;;;;;;;1.40;0.47;;;;;;;7.22;100.00;100263.84;5452519;26;20322;-78
2024/04/18 07:33:25;;;;;;;1.87;0.47;;;;;;;7.26;100.00;100265.06;5485449;26;20314;-77
2024/04/18 07:35:59;;;;;;;0.77;0.77;;;;;;;7.28;100.00;100268.34;5481217;26;20648;-77
2024/04/18 07:38:25;;;;;;;0.50;0.50;;;;;;;7.30;100.00;100271.66;5512789;26;20404;-78
2024/04/18 07:40:51;;;;;;;0.40;0.40;;;;;;;7.34;100.00;100276.56;5509881;26;20319;-77
2024/04/18 07:43:16;;;;;;;0.80;0.80;;;;;;;7.35;100.00;100283.59;5458007;26;20318;-78
2024/04/18 07:45:41;;;;;;;0.50;0.50;;;;;;;7.36;100.00;100285.25;5477870;26;20326;-79
2024/04/18 07:48:07;;;;;;;0.80;0.80;;;;;;;7.41;100.00;100290.78;5467486;26;20451;-76
2024/04/18 07:50:33;;;;;;;0.90;0.57;;;;;;;7.46;100.00;100290.91;5487566;26;20333;-77
2024/04/18 07:52:58;;;;;;;0.50;0.50;;;;;;;7.53;100.00;100294.34;5484736;26;20865;-78
2024/04/18 07:55:23;;;;;;;1.03;1.03;;;;;;;7.59;100.00;100301.53;5454938;26;20319;-77
2024/04/18 07:57:49;;;;;;;0.97;0.70;;;;;;;7.63;100.00;100308.09;5484733;26;20338;-77
2024/04/18 08:00:14;;;;;;;0.50;0.40;;;;;;;7.68;100.00;100311.75;5454020;26;20311;-78
2024/04/18 08:02:39;;;;;;;0.40;0.40;;;;;;;7.72;100.00;100312.94;5486472;26;20311;-77
2024/04/18 08:05:05;;;;;;;0.60;0.60;;;;;;;7.77;100.00;100318.47;5486636;26;20369;-77
2024/04/18 08:07:30;;;;;;;0.80;0.80;;;;;;;7.80;100.00;100320.69;5485180;26;20809;-77
2024/04/18 08:09:55;;;;;;;0.70;0.70;;;;;;;7.81;100.00;100321.53;5484121;26;20306;-77
2024/04/18 08:12:20;;;;;;;1.00;0.60;;;;;;;7.87;100.00;100326.00;5504714;26;20807;-77
2024/04/18 08:14:47;;;;;;;0.70;0.60;;;;;;;7.88;100.00;100324.94;5483247;26;20353;-77
2024/04/18 08:17:12;;;;;;;0.70;0.70;;;;;;;7.90;100.00;100335.53;5514467;26;20311;-78
2024/04/18 08:19:37;;;;;;;0.60;0.60;;;;;;;7.77;100.00;100337.34;5515924;26;20350;-78
2024/04/18 08:22:02;;;;;;;1.10;0.70;;;;;;;7.74;100.00;100351.28;5501109;26;20333;-78
2024/04/18 08:24:28;;;;;;;0.60;0.60;;;;;;;7.82;100.00;100348.28;5508441;26;20302;-78
2024/04/18 08:26:54;;;;;;;0.67;0.67;;;;;;;7.84;100.00;100348.03;5510128;26;20318;-77
2024/04/18 08:29:22;;;;;;;0.90;0.90;;;;;;;7.87;100.00;100352.97;5515977;26;20340;-78
2024/04/18 08:31:48;;;;;;;0.88;0.88;;;;;;;7.89;100.00;100355.44;5504095;26;20322;-77
2024/04/18 08:34:14;;;;;;;0.90;0.90;;;;;;;8.01;100.00;100364.41;5490195;26;20335;-78
2024/04/18 08:36:39;;;;;;;1.10;1.10;;;;;;;8.09;100.00;100361.38;5478871;26;20322;-78
2024/04/18 08:39:04;;;;;;;1.50;1.20;;;;;;;8.14;100.00;100370.41;5483283;26;20312;-78
2024/04/18 08:41:30;;;;;;;1.33;1.30;;;;;;;8.20;100.00;100366.00;5471744;26;20322;-78
2024/04/18 08:43:57;;;;;;;1.23;1.23;;;;;;;8.21;100.00;100373.03;5442344;26;20912;-78
2024/04/18 08:46:23;;;;;;;1.08;1.08;;;;;;;8.22;100.00;100377.38;5450915;26;20321;-77
2024/04/18 08:48:50;;;;;;;1.30;1.30;;;;;;;8.18;100.00;100376.19;5453013;26;20321;-77
2024/04/18 08:51:17;;;;;;;1.55;1.55;;;;;;;8.19;100.00;100378.66;5453311;26;20354;-78
2024/04/18 08:53:42;;;;;;;1.73;1.63;;;;;;;8.33;100.00;100379.31;5452770;26;20843;-78
2024/04/18 08:56:10;;;;;;;1.60;1.57;;;;;;;8.46;100.00;100380.97;5452817;26;20309;-78
2024/04/18 08:58:35;;;;;;;1.63;1.53;;;;;;;8.56;100.00;100378.53;5445288;26;20435;-77
2024/04/18 09:01:01;;;;;;;2.23;2.23;;;;;;;8.73;100.00;100374.03;5452956;26;20432;-78
2024/04/18 09:03:26;;;;;;;2.53;2.43;;;;;;;8.91;100.00;100365.84;5468782;26;20330;-79
2024/04/18 09:05:52;;;;;;;2.70;2.50;;;;;;;9.04;100.00;100381.81;5471613;26;20325;-77
2024/04/18 09:08:17;;;;;;;2.20;2.10;;;;;;;9.08;100.00;100391.09;5475000;26;20330;-78
2024/04/18 09:10:42;;;;;;;2.60;2.40;;;;;;;9.33;100.00;100394.34;5478165;26;20346;-78
2024/04/18 09:13:11;;;;;;;4.70;2.77;;;;;;;9.45;100.00;100385.38;5458487;26;20321;-77
2024/04/18 09:15:37;;;;;;;3.75;3.55;;;;;;;9.53;100.00;100399.34;5452721;26;20313;-77
2024/04/18 09:18:07;;;;;;;4.00;3.70;;;;;;;9.50;100.00;100397.13;5449872;26;20367;-78
2024/04/18 09:20:35;;;;;;;9.07;4.33;;;;;;;9.51;100.00;100406.06;5452195;26;20356;-78
2024/04/18 09:23:00;;;;;;;5.30;4.85;;;;;;;9.55;100.00;100402.63;5450014;26;20396;-77
2024/04/18 09:25:26;;;;;;;4.85;4.45;;;;;;;9.71;100.00;100404.59;5452711;26;20321;-78
2024/04/18 09:27:51;;;;;;;5.57;5.07;;;;;;;9.78;100.00;100399.06;5452139;26;20321;-78
2024/04/18 09:30:16;;;;;;;6.05;5.55;;;;;;;9.75;100.00;100394.91;5452388;26;20321;-78
2024/04/18 09:32:42;;;;;;;5.80;5.30;;;;;;;10.00;100.00;100393.78;5452287;26;20324;-77
2024/04/18 09:35:08;;;;;;;5.47;5.07;;;;;;;10.23;100.00;100401.81;5437963;26;20376;-78
2024/04/18 09:37:36;;;;;;;6.25;5.65;;;;;;;10.34;100.00;100407.16;5452538;26;20329;-79
2024/04/18 09:40:02;;;;;;;5.40;4.90;;;;;;;10.39;100.00;100404.53;5456701;26;20326;-79
2024/04/18 09:43:08;;;;;;;5.53;5.13;;;;;;;10.12;100.00;100405.34;5503671;26;20366;-78
2024/04/18 09:45:49;;;;;;;6.95;6.25;;;;;;;10.03;100.00;100401.41;5508520;26;20357;-78
2024/04/18 09:48:16;;;;;;;8.90;8.00;;;;;;;10.04;100.00;100414.72;5505820;26;20356;-79
2024/04/18 09:50:42;;;;;;;8.18;7.47;;;;;;;10.09;100.00;100413.97;5499903;26;20412;-78
2024/04/18 09:53:10;;;;;;;7.65;6.90;;;;;;;10.24;100.00;100415.09;5481871;26;20318;-78
2024/04/18 09:55:37;;;;;;;6.70;6.10;;;;;;;10.34;100.00;100425.31;5501761;26;20385;-78
2024/04/18 09:58:05;;;;;;;6.65;6.07;;;;;;;10.19;100.00;100422.31;5488542;26;20330;-78
2024/04/18 10:00:31;;;;;;;7.95;6.82;;;;;;;10.16;100.00;100431.75;5488598;26;20315;-78
2024/04/18 10:02:57;;;;;;;7.75;7.03;;;;;;;10.19;100.00;100425.03;5486542;26;20687;-78
2024/04/18 10:05:23;;;;;;;7.60;7.03;;;;;;;10.19;100.00;100428.56;5491912;26;20659;-78
2024/04/18 10:07:50;;;;;;;7.95;7.30;;;;;;;10.29;100.00;100433.34;5513450;26;20320;-78
2024/04/18 10:10:17;;;;;;;8.50;7.70;;;;;;;10.29;100.00;100431.44;5483843;26;20397;-78
2024/04/18 10:12:43;;;;;;;8.70;7.85;;;;;;;10.25;100.00;100426.75;5485486;26;20310;-78
2024/04/18 10:15:09;;;;;;;9.02;7.88;;;;;;;10.29;100.00;100436.03;5487623;26;20310;-79
2024/04/18 10:17:34;;;;;;;8.37;7.57;;;;;;;10.33;100.00;100427.19;5488244;26;20419;-79
2024/04/18 10:20:00;;;;;;;9.02;8.13;;;;;;;10.48;100.00;100429.34;5488384;26;20306;-78
2024/04/18 10:22:29;;;;;;;7.70;6.95;;;;;;;10.51;100.00;100436.13;5486930;26;20310;-79
2024/04/18 10:24:54;;;;;;;7.27;6.67;;;;;;;10.81;100.00;100439.38;5508793;26;20314;-79
2024/04/18 10:27:19;;;;;;;7.33;6.80;;;;;;;11.70;100.00;100434.66;5470050;26;20378;-79
2024/04/18 10:29:56;;;;;;;6.57;6.00;;;;;;;12.90;100.00;100443.28;5484804;26;20310;-79
2024/04/18 10:32:22;;;;;;;6.53;5.93;;;;;;;12.48;100.00;100440.44;5497190;26;20319;-81
2024/04/18 10:34:48;;;;;;;6.88;6.38;;;;;;;12.34;100.00;100446.56;5479350;26;20315;-80
2024/04/18 10:37:22;;;;;;;6.72;6.22;;;;;;;12.39;100.00;100446.59;5495459;26;20369;-79
2024/04/18 10:39:48;;;;;;;6.45;5.95;;;;;;;12.04;100.00;100451.66;5486642;26;20858;-79
2024/04/18 10:42:18;;;;;;;6.65;6.18;;;;;;;11.81;100.00;100448.16;5483767;26;20330;-77
2024/04/18 10:44:45;;;;;;;6.57;6.13;;;;;;;11.61;100.00;100453.28;5485272;26;20357;-79
2024/04/18 10:47:11;;;;;;;8.05;7.38;;;;;;;11.38;100.00;100456.25;5501468;26;20315;-79
2024/04/18 10:49:38;;;;;;;8.23;7.57;;;;;;;11.21;100.00;100460.88;5513462;26;20312;-79
2024/04/18 10:52:08;;;;;;;8.38;6.45;;;;;;;11.05;100.00;100459.00;5505879;26;20330;-78
2024/04/18 10:54:35;;;;;;;7.75;7.15;;;;;;;10.85;100.00;100460.31;5511846;26;20307;-79
2024/04/18 10:57:01;;;;;;;7.43;6.93;;;;;;;10.77;100.00;100459.91;5487287;26;20808;-80
2024/04/18 10:59:27;;;;;;;11.33;7.80;;;;;;;10.86;100.00;100469.28;5491870;26;20441;-79
2024/04/18 11:02:03;;;;;;;8.88;8.00;;;;;;;11.00;100.00;100462.44;5473994;26;20355;-79
2024/04/18 11:04:28;;;;;;;7.10;6.53;;;;;;;10.93;100.00;100465.31;5469673;26;20310;-79
2024/04/18 11:06:54;;;;;;;7.65;7.10;;;;;;;11.00;100.00;100467.88;5459438;26;20318;-79
2024/04/18 11:09:19;;;;;;;6.90;6.33;;;;;;;12.51;100.00;100469.03;5507268;26;20334;-79
2024/04/18 11:11:44;;;;;;;6.30;5.80;;;;;;;13.43;100.00;100457.81;5488428;26;20848;-79
2024/04/18 11:14:10;;;;;;;6.83;6.27;;;;;;;13.26;100.00;100459.88;5511477;26;20323;-80
2024/04/18 11:16:35;;;;;;;6.70;6.20;;;;;;;14.59;100.00;100455.50;5458101;26;20477;-80
2024/04/18 11:19:00;;;;;;;6.13;5.63;;;;;;;15.20;100.00;100466.41;5506374;26;20316;-79
2024/04/18 11:21:26;;;;;;;5.40;4.90;;;;;;;15.68;100.00;100460.31;5494579;26;20347;-80
2024/04/18 11:23:52;;;;;;;5.97;5.47;;;;;;;14.70;100.00;100451.69;5498035;26;20318;-80
2024/04/18 11:26:19;;;;;;;6.57;5.93;;;;;;;13.85;100.00;100455.00;5513212;26;20409;-82